Portada
METAR-TAF:

METAR-TAF

Aeroports :

Franklin County, Vermont, Estats Units d'Amèrica

latitud: 44-56-25N, longitud: 073-05-51W, altitud: 69 m

Observació

L'informe es va fer fa 23 minuts, a les 00:55 UTC
Vent 12 kt del Sud/Sud-Est amb ràfegues de 17 kt
Temperatura 20°C
Humitat 64%
Pressió 1013 hPa
Visibilitat: 16.1 km
Cel clar

METAR: KFSO 240055Z AUTO 16012G17KT 10SM CLR 20/13 A2990 RMK AO2 T02000133

Hora: 21:18 (01:18 UTC)


TAF: manca

Observacions i pronòstics meteorològics de més de 4000 aeroports (METAR i TAF).

Les estacions disponibles són els punts grocs i vermells al mapa.

Posi el ratolí al punt desitjat per veure el nom de l'estació.

Feu clic per veure les observacions i els pronòstics meteorològics.

Per canviar el mapa: feu clic els botons verds amb una creu de color negre per apropar; al botó verd amb un guió per allunyar la imatge; o en les fletxes verdes per a mapes adjacents.


METAR-TAF: